sensor_id;sensor_type;location;lat;lon;timestamp;pressure;altitude;pressure_sealevel;temperature;humidity
75747;BME280;70632;52.232;21.038;2024-01-15T00:00:14;98105.88;;;0.54;88.53
75747;BME280;70632;52.232;21.038;2024-01-15T00:03:00;98097.28;;;0.62;88.04
75747;BME280;70632;52.232;21.038;2024-01-15T00:05:26;98091.22;;;0.60;87.76
75747;BME280;70632;52.232;21.038;2024-01-15T00:07:52;98103.34;;;0.64;87.65
75747;BME280;70632;52.232;21.038;2024-01-15T00:10:17;98102.28;;;0.67;88.21
75747;BME280;70632;52.232;21.038;2024-01-15T00:12:43;98091.59;;;0.67;87.39
75747;BME280;70632;52.232;21.038;2024-01-15T00:15:09;98075.38;;;0.70;87.60
75747;BME280;70632;52.232;21.038;2024-01-15T00:17:35;98078.38;;;0.65;87.44
75747;BME280;70632;52.232;21.038;2024-01-15T00:20:00;98098.03;;;0.64;87.38
75747;BME280;70632;52.232;21.038;2024-01-15T00:22:26;98069.78;;;0.62;88.20
75747;BME280;70632;52.232;21.038;2024-01-15T00:24:52;98079.25;;;0.66;88.49
75747;BME280;70632;52.232;21.038;2024-01-15T00:27:18;98079.94;;;0.56;87.61
75747;BME280;70632;52.232;21.038;2024-01-15T00:29:44;98050.88;;;0.65;88.56
75747;BME280;70632;52.232;21.038;2024-01-15T00:32:10;98045.31;;;0.68;88.08
75747;BME280;70632;52.232;21.038;2024-01-15T00:34:35;98047.00;;;0.69;88.67
75747;BME280;70632;52.232;21.038;2024-01-15T00:37:01;98039.97;;;0.68;88.39
75747;BME280;70632;52.232;21.038;2024-01-15T00:39:27;98029.31;;;0.68;87.59
75747;BME280;70632;52.232;21.038;2024-01-15T00:41:53;98034.66;;;0.68;87.74
75747;BME280;70632;52.232;21.038;2024-01-15T00:44:18;98041.03;;;0.65;87.44
75747;BME280;70632;52.232;21.038;2024-01-15T00:46:45;98033.56;;;0.70;86.63
75747;BME280;70632;52.232;21.038;2024-01-15T00:49:14;98021.31;;;0.68;86.26
75747;BME280;70632;52.232;21.038;2024-01-15T00:51:41;98032.47;;;0.73;86.40
75747;BME280;70632;52.232;21.038;2024-01-15T00:54:06;98018.16;;;0.74;86.46
75747;BME280;70632;52.232;21.038;2024-01-15T00:56:32;98014.38;;;0.65;86.76
75747;BME280;70632;52.232;21.038;2024-01-15T00:58:58;98003.47;;;0.68;87.58
75747;BME280;70632;52.232;21.038;2024-01-15T01:01:24;98013.31;;;0.68;87.70
75747;BME280;70632;52.232;21.038;2024-01-15T01:03:49;98003.34;;;0.58;87.99
75747;BME280;70632;52.232;21.038;2024-01-15T01:06:15;97997.88;;;0.49;89.29
75747;BME280;70632;52.232;21.038;2024-01-15T01:08:41;97999.69;;;0.48;89.97
75747;BME280;70632;52.232;21.038;2024-01-15T01:11:07;98003.53;;;0.33;89.97
75747;BME280;70632;52.232;21.038;2024-01-15T01:13:33;97988.13;;;0.36;90.79
75747;BME280;70632;52.232;21.038;2024-01-15T01:15:58;97991.78;;;0.35;91.21
75747;BME280;70632;52.232;21.038;2024-01-15T01:18:24;97991.16;;;0.32;91.63
75747;BME280;70632;52.232;21.038;2024-01-15T01:20:50;97996.38;;;0.33;92.09
75747;BME280;70632;52.232;21.038;2024-01-15T01:23:16;97970.94;;;0.29;91.11
75747;BME280;70632;52.232;21.038;2024-01-15T01:25:42;97991.00;;;0.22;90.46
75747;BME280;70632;52.232;21.038;2024-01-15T01:28:07;97977.81;;;0.21;92.50
75747;BME280;70632;52.232;21.038;2024-01-15T01:30:33;97986.41;;;0.24;92.17
75747;BME280;70632;52.232;21.038;2024-01-15T01:32:59;97979.50;;;0.22;91.97
75747;BME280;70632;52.232;21.038;2024-01-15T01:35:25;97971.03;;;0.28;91.54
75747;BME280;70632;52.232;21.038;2024-01-15T01:37:51;97962.22;;;0.27;92.18
75747;BME280;70632;52.232;21.038;2024-01-15T01:40:17;97962.22;;;0.27;91.18
75747;BME280;70632;52.232;21.038;2024-01-15T01:42:42;97960.91;;;0.33;91.46
75747;BME280;70632;52.232;21.038;2024-01-15T01:45:08;97956.78;;;0.29;90.78
75747;BME280;70632;52.232;21.038;2024-01-15T01:47:34;97961.22;;;0.28;90.47
75747;BME280;70632;52.232;21.038;2024-01-15T01:50:02;97951.91;;;0.34;90.93
75747;BME280;70632;52.232;21.038;2024-01-15T01:52:28;97939.44;;;0.34;90.25
75747;BME280;70632;52.232;21.038;2024-01-15T01:54:54;97946.38;;;0.37;90.85
75747;BME280;70632;52.232;21.038;2024-01-15T01:57:20;97954.09;;;0.29;89.88
75747;BME280;70632;52.232;21.038;2024-01-15T01:59:46;97955.56;;;0.33;90.53
75747;BME280;70632;52.232;21.038;2024-01-15T02:02:12;97932.06;;;0.38;89.96
75747;BME280;70632;52.232;21.038;2024-01-15T02:04:39;97945.28;;;0.39;89.67
75747;BME280;70632;52.232;21.038;2024-01-15T02:07:05;97926.72;;;0.38;89.87
75747;BME280;70632;52.232;21.038;2024-01-15T02:09:30;97944.19;;;0.42;89.26
75747;BME280;70632;52.232;21.038;2024-01-15T02:11:57;97944.91;;;0.44;88.87
75747;BME280;70632;52.232;21.038;2024-01-15T02:14:23;97929.66;;;0.46;88.57
75747;BME280;70632;52.232;21.038;2024-01-15T02:16:49;97931.47;;;0.46;88.17
75747;BME280;70632;52.232;21.038;2024-01-15T02:19:16;97927.22;;;0.43;88.26
75747;BME280;70632;52.232;21.038;2024-01-15T02:21:42;97911.34;;;0.42;88.08
75747;BME280;70632;52.232;21.038;2024-01-15T02:24:08;97913.66;;;0.46;88.50
75747;BME280;70632;52.232;21.038;2024-01-15T02:26:34;97906.38;;;0.48;88.30
75747;BME280;70632;52.232;21.038;2024-01-15T02:29:02;97905.44;;;0.49;87.02
75747;BME280;70632;52.232;21.038;2024-01-15T02:31:27;97904.06;;;0.55;87.00
75747;BME280;70632;52.232;21.038;2024-01-15T02:33:53;97906.50;;;0.47;87.15
75747;BME280;70632;52.232;21.038;2024-01-15T02:36:19;97901.66;;;0.52;86.98
75747;BME280;70632;52.232;21.038;2024-01-15T02:38:45;97889.91;;;0.54;86.57
75747;BME280;70632;52.232;21.038;2024-01-15T02:41:10;97893.03;;;0.48;86.61
75747;BME280;70632;52.232;21.038;2024-01-15T02:43:40;97892.94;;;0.50;85.59
75747;BME280;70632;52.232;21.038;2024-01-15T02:46:06;97894.03;;;0.47;85.28
75747;BME280;70632;52.232;21.038;2024-01-15T02:48:32;97889.53;;;0.48;85.45
75747;BME280;70632;52.232;21.038;2024-01-15T02:51:00;97878.50;;;0.52;85.84
75747;BME280;70632;52.232;21.038;2024-01-15T02:53:26;97883.38;;;0.47;87.00
75747;BME280;70632;52.232;21.038;2024-01-15T02:55:52;97871.38;;;0.42;86.09
75747;BME280;70632;52.232;21.038;2024-01-15T02:58:18;97873.78;;;0.45;86.93
75747;BME280;70632;52.232;21.038;2024-01-15T03:00:43;97882.50;;;0.47;86.93
75747;BME280;70632;52.232;21.038;2024-01-15T03:03:09;97846.16;;;0.46;86.57
75747;BME280;70632;52.232;21.038;2024-01-15T03:05:35;97844.81;;;0.40;86.45
75747;BME280;70632;52.232;21.038;2024-01-15T03:08:01;97838.66;;;0.39;86.36
75747;BME280;70632;52.232;21.038;2024-01-15T03:10:26;97840.00;;;0.45;86.15
75747;BME280;70632;52.232;21.038;2024-01-15T03:12:52;97840.94;;;0.44;85.72
75747;BME280;70632;52.232;21.038;2024-01-15T03:15:18;97835.72;;;0.43;86.70
75747;BME280;70632;52.232;21.038;2024-01-15T03:17:44;97853.44;;;0.44;86.91
75747;BME280;70632;52.232;21.038;2024-01-15T03:20:10;97835.25;;;0.37;88.34
75747;BME280;70632;52.232;21.038;2024-01-15T03:22:36;97828.34;;;0.35;89.13
75747;BME280;70632;52.232;21.038;2024-01-15T03:25:03;97824.25;;;0.31;91.20
75747;BME280;70632;52.232;21.038;2024-01-15T03:27:29;97824.59;;;0.26;91.82
75747;BME280;70632;52.232;21.038;2024-01-15T03:29:55;97814.56;;;0.18;91.93
75747;BME280;70632;52.232;21.038;2024-01-15T03:32:20;97822.88;;;0.14;92.25
75747;BME280;70632;52.232;21.038;2024-01-15T03:34:46;97809.56;;;0.14;91.78
75747;BME280;70632;52.232;21.038;2024-01-15T03:37:13;97802.44;;;0.14;91.91
75747;BME280;70632;52.232;21.038;2024-01-15T03:39:39;97808.59;;;0.15;92.34
75747;BME280;70632;52.232;21.038;2024-01-15T03:42:05;97802.78;;;0.21;91.96
75747;BME280;70632;52.232;21.038;2024-01-15T03:44:31;97805.34;;;0.23;91.85
75747;BME280;70632;52.232;21.038;2024-01-15T03:46:57;97804.38;;;0.24;90.53
75747;BME280;70632;52.232;21.038;2024-01-15T03:49:23;97811.75;;;0.20;89.05
75747;BME280;70632;52.232;21.038;2024-01-15T03:51:49;97800.63;;;0.15;90.29
75747;BME280;70632;52.232;21.038;2024-01-15T03:54:15;97792.63;;;0.15;89.14
75747;BME280;70632;52.232;21.038;2024-01-15T03:56:40;97788.13;;;0.15;88.97
75747;BME280;70632;52.232;21.038;2024-01-15T03:59:06;97784.38;;;0.18;88.91
75747;BME280;70632;52.232;21.038;2024-01-15T04:01:32;97774.69;;;0.17;89.06
75747;BME280;70632;52.232;21.038;2024-01-15T04:03:57;97776.88;;;0.23;89.13
75747;BME280;70632;52.232;21.038;2024-01-15T04:06:23;97769.34;;;0.28;88.90
75747;BME280;70632;52.232;21.038;2024-01-15T04:08:49;97781.84;;;0.28;88.35
75747;BME280;70632;52.232;21.038;2024-01-15T04:11:15;97774.09;;;0.25;88.35
75747;BME280;70632;52.232;21.038;2024-01-15T04:13:40;97753.72;;;0.24;88.40
75747;BME280;70632;52.232;21.038;2024-01-15T04:16:06;97754.94;;;0.19;88.47
75747;BME280;70632;52.232;21.038;2024-01-15T04:18:32;97757.59;;;0.19;88.44
75747;BME280;70632;52.232;21.038;2024-01-15T04:20:58;97746.22;;;0.17;88.66
75747;BME280;70632;52.232;21.038;2024-01-15T04:23:24;97743.06;;;0.24;89.22
75747;BME280;70632;52.232;21.038;2024-01-15T04:25:49;97747.19;;;0.28;88.49
75747;BME280;70632;52.232;21.038;2024-01-15T04:28:15;97722.25;;;0.29;87.57
75747;BME280;70632;52.232;21.038;2024-01-15T04:30:41;97743.41;;;0.30;87.61
75747;BME280;70632;52.232;21.038;2024-01-15T04:33:07;97721.38;;;0.28;87.51
75747;BME280;70632;52.232;21.038;2024-01-15T04:35:33;97721.03;;;0.33;87.15
75747;BME280;70632;52.232;21.038;2024-01-15T04:37:59;97704.16;;;0.32;86.37
75747;BME280;70632;52.232;21.038;2024-01-15T04:40:25;97704.31;;;0.31;86.48
75747;BME280;70632;52.232;21.038;2024-01-15T04:42:54;97708.44;;;0.35;85.61
75747;BME280;70632;52.232;21.038;2024-01-15T04:45:20;97703.09;;;0.35;85.15
75747;BME280;70632;52.232;21.038;2024-01-15T04:47:48;97726.69;;;0.39;85.29
75747;BME280;70632;52.232;21.038;2024-01-15T04:50:14;97706.47;;;0.37;85.05
75747;BME280;70632;52.232;21.038;2024-01-15T04:52:40;97697.75;;;0.35;84.83
75747;BME280;70632;52.232;21.038;2024-01-15T04:55:06;97705.75;;;0.35;85.00
75747;BME280;70632;52.232;21.038;2024-01-15T04:57:31;97715.44;;;0.36;84.48
75747;BME280;70632;52.232;21.038;2024-01-15T04:59:57;97717.97;;;0.37;84.38
75747;BME280;70632;52.232;21.038;2024-01-15T05:02:23;97690.22;;;0.40;84.62
75747;BME280;70632;52.232;21.038;2024-01-15T05:04:48;97696.53;;;0.39;84.35
75747;BME280;70632;52.232;21.038;2024-01-15T05:07:14;97681.50;;;0.38;84.48
75747;BME280;70632;52.232;21.038;2024-01-15T05:09:40;97676.06;;;0.39;83.74
75747;BME280;70632;52.232;21.038;2024-01-15T05:12:06;97679.56;;;0.40;83.94
75747;BME280;70632;52.232;21.038;2024-01-15T05:14:32;97684.66;;;0.43;83.23
75747;BME280;70632;52.232;21.038;2024-01-15T05:16:58;97704.28;;;0.42;83.97
75747;BME280;70632;52.232;21.038;2024-01-15T05:19:24;97676.78;;;0.42;83.44
75747;BME280;70632;52.232;21.038;2024-01-15T05:21:49;97671.34;;;0.43;83.15
75747;BME280;70632;52.232;21.038;2024-01-15T05:24:15;97661.84;;;0.50;83.37
75747;BME280;70632;52.232;21.038;2024-01-15T05:26:41;97669.00;;;0.50;82.82
75747;BME280;70632;52.232;21.038;2024-01-15T05:29:06;97681.38;;;0.39;83.74
75747;BME280;70632;52.232;21.038;2024-01-15T05:31:32;97665.28;;;0.41;83.63
75747;BME280;70632;52.232;21.038;2024-01-15T05:33:58;97676.28;;;0.36;84.42
75747;BME280;70632;52.232;21.038;2024-01-15T05:36:24;97684.66;;;0.43;83.69
75747;BME280;70632;52.232;21.038;2024-01-15T05:38:49;97670.09;;;0.47;83.63
75747;BME280;70632;52.232;21.038;2024-01-15T05:41:15;97661.00;;;0.50;83.77
75747;BME280;70632;52.232;21.038;2024-01-15T05:43:41;97680.63;;;0.49;82.38
75747;BME280;70632;52.232;21.038;2024-01-15T05:46:07;97670.94;;;0.48;82.68
75747;BME280;70632;52.232;21.038;2024-01-15T05:48:33;97687.16;;;0.45;83.38
75747;BME280;70632;52.232;21.038;2024-01-15T05:50:59;97677.38;;;0.45;82.93
75747;BME280;70632;52.232;21.038;2024-01-15T05:53:24;97688.88;;;0.46;82.54
75747;BME280;70632;52.232;21.038;2024-01-15T05:55:50;97682.09;;;0.42;83.58
75747;BME280;70632;52.232;21.038;2024-01-15T05:58:16;97654.84;;;0.38;84.04
75747;BME280;70632;52.232;21.038;2024-01-15T06:00:41;97669.53;;;0.32;85.76
75747;BME280;70632;52.232;21.038;2024-01-15T06:03:07;97670.13;;;0.36;85.98
75747;BME280;70632;52.232;21.038;2024-01-15T06:05:33;97659.59;;;0.34;86.89
75747;BME280;70632;52.232;21.038;2024-01-15T06:07:59;97667.00;;;0.31;86.26
75747;BME280;70632;52.232;21.038;2024-01-15T06:10:25;97653.78;;;0.29;85.68
75747;BME280;70632;52.232;21.038;2024-01-15T06:12:50;97649.31;;;0.30;85.62
75747;BME280;70632;52.232;21.038;2024-01-15T06:15:16;97651.47;;;0.36;86.82
75747;BME280;70632;52.232;21.038;2024-01-15T06:17:41;97648.19;;;0.32;86.01
75747;BME280;70632;52.232;21.038;2024-01-15T06:20:08;97636.97;;;0.29;84.76
75747;BME280;70632;52.232;21.038;2024-01-15T06:22:34;97628.72;;;0.32;85.95
75747;BME280;70632;52.232;21.038;2024-01-15T06:25:02;97639.25;;;0.33;84.38
75747;BME280;70632;52.232;21.038;2024-01-15T06:27:28;97633.09;;;0.33;85.03
75747;BME280;70632;52.232;21.038;2024-01-15T06:29:54;97637.41;;;0.34;85.29
75747;BME280;70632;52.232;21.038;2024-01-15T06:32:21;97641.78;;;0.35;86.70
75747;BME280;70632;52.232;21.038;2024-01-15T06:34:47;97639.25;;;0.33;87.14
75747;BME280;70632;52.232;21.038;2024-01-15T06:37:13;97630.19;;;0.25;86.91
75747;BME280;70632;52.232;21.038;2024-01-15T06:39:39;97649.81;;;0.24;86.27
75747;BME280;70632;52.232;21.038;2024-01-15T06:42:05;97623.88;;;0.26;86.36
75747;BME280;70632;52.232;21.038;2024-01-15T06:44:31;97640.72;;;0.26;85.07
75747;BME280;70632;52.232;21.038;2024-01-15T06:46:56;97628.09;;;0.28;85.56
75747;BME280;70632;52.232;21.038;2024-01-15T06:49:28;97642.53;;;0.26;85.58
75747;BME280;70632;52.232;21.038;2024-01-15T06:51:55;97622.41;;;0.33;85.37
75747;BME280;70632;52.232;21.038;2024-01-15T06:54:21;97620.47;;;0.35;83.51
75747;BME280;70632;52.232;21.038;2024-01-15T06:56:47;97626.53;;;0.37;83.35
75747;BME280;70632;52.232;21.038;2024-01-15T06:59:12;97619.25;;;0.39;82.78
75747;BME280;70632;52.232;21.038;2024-01-15T07:01:38;97641.03;;;0.44;82.84
75747;BME280;70632;52.232;21.038;2024-01-15T07:04:04;97653.19;;;0.37;84.50
75747;BME280;70632;52.232;21.038;2024-01-15T07:06:29;97621.31;;;0.35;84.43
75747;BME280;70632;52.232;21.038;2024-01-15T07:08:56;97637.19;;;0.37;84.40
75747;BME280;70632;52.232;21.038;2024-01-15T07:11:22;97626.75;;;0.34;84.75
75747;BME280;70632;52.232;21.038;2024-01-15T07:13:48;97622.66;;;0.30;86.53
75747;BME280;70632;52.232;21.038;2024-01-15T07:16:13;97629.69;;;0.31;86.51
75747;BME280;70632;52.232;21.038;2024-01-15T07:18:39;97631.63;;;0.29;85.52
75747;BME280;70632;52.232;21.038;2024-01-15T07:21:05;97635.88;;;0.31;86.59
75747;BME280;70632;52.232;21.038;2024-01-15T07:23:31;97612.63;;;0.22;86.44
75747;BME280;70632;52.232;21.038;2024-01-15T07:25:57;97634.19;;;0.19;87.83
75747;BME280;70632;52.232;21.038;2024-01-15T07:28:23;97683.03;;;0.08;88.14
75747;BME280;70632;52.232;21.038;2024-01-15T07:30:49;97634.88;;;0.00;89.18
75747;BME280;70632;52.232;21.038;2024-01-15T07:33:15;97652.06;;;-0.04;89.80
75747;BME280;70632;52.232;21.038;2024-01-15T07:35:40;97639.69;;;-0.05;90.35
75747;BME280;70632;52.232;21.038;2024-01-15T07:38:06;97632.53;;;-0.05;90.77
75747;BME280;70632;52.232;21.038;2024-01-15T07:40:32;97644.78;;;-0.13;90.58
75747;BME280;70632;52.232;21.038;2024-01-15T07:42:58;97664.03;;;-0.10;90.92
75747;BME280;70632;52.232;21.038;2024-01-15T07:45:24;97652.78;;;-0.02;90.12
75747;BME280;70632;52.232;21.038;2024-01-15T07:47:49;97656.41;;;-0.03;89.96
75747;BME280;70632;52.232;21.038;2024-01-15T07:50:15;97640.53;;;-0.05;89.72
75747;BME280;70632;52.232;21.038;2024-01-15T07:52:41;97641.03;;;0.01;89.96
75747;BME280;70632;52.232;21.038;2024-01-15T07:55:09;97649.03;;;0.01;89.81
75747;BME280;70632;52.232;21.038;2024-01-15T07:57:36;97655.69;;;0.06;89.62
75747;BME280;70632;52.232;21.038;2024-01-15T08:00:02;97638.09;;;0.04;88.20
75747;BME280;70632;52.232;21.038;2024-01-15T08:02:30;97629.03;;;0.06;87.82
75747;BME280;70632;52.232;21.038;2024-01-15T08:04:57;97638.81;;;0.06;87.41
75747;BME280;70632;52.232;21.038;2024-01-15T08:07:25;97648.03;;;0.02;88.30
75747;BME280;70632;52.232;21.038;2024-01-15T08:09:52;97639.94;;;0.03;89.49
75747;BME280;70632;52.232;21.038;2024-01-15T08:12:17;97629.88;;;-0.05;90.15
75747;BME280;70632;52.232;21.038;2024-01-15T08:14:43;97659.31;;;-0.06;91.12
75747;BME280;70632;52.232;21.038;2024-01-15T08:17:09;97656.41;;;-0.03;90.71
75747;BME280;70632;52.232;21.038;2024-01-15T08:19:35;97658.94;;;-0.02;91.31
75747;BME280;70632;52.232;21.038;2024-01-15T08:22:01;97638.25;;;0.02;89.75
75747;BME280;70632;52.232;21.038;2024-01-15T08:24:26;97636.88;;;0.08;90.02
75747;BME280;70632;52.232;21.038;2024-01-15T08:26:52;97625.25;;;0.09;87.66
75747;BME280;70632;52.232;21.038;2024-01-15T08:29:18;97629.03;;;0.06;87.42
75747;BME280;70632;52.232;21.038;2024-01-15T08:31:46;97602.88;;;0.32;86.34
75747;BME280;70632;52.232;21.038;2024-01-15T08:34:12;97620.81;;;0.42;86.82
75747;BME280;70632;52.232;21.038;2024-01-15T08:36:38;97644.00;;;0.62;84.75
75747;BME280;70632;52.232;21.038;2024-01-15T08:39:03;97642.41;;;1.13;83.17
75747;BME280;70632;52.232;21.038;2024-01-15T08:41:34;97631.84;;;1.11;82.41
75747;BME280;70632;52.232;21.038;2024-01-15T08:44:00;97602.63;;;1.10;81.05
75747;BME280;70632;52.232;21.038;2024-01-15T08:46:26;97620.25;;;1.01;81.51
75747;BME280;70632;52.232;21.038;2024-01-15T08:48:51;97625.13;;;0.75;81.84
75747;BME280;70632;52.232;21.038;2024-01-15T08:51:17;97634.88;;;0.65;83.10
75747;BME280;70632;52.232;21.038;2024-01-15T08:53:44;97638.06;;;0.58;83.26
75747;BME280;70632;52.232;21.038;2024-01-15T08:56:10;97659.44;;;0.47;84.20
75747;BME280;70632;52.232;21.038;2024-01-15T08:58:36;97640.91;;;0.46;84.33
75747;BME280;70632;52.232;21.038;2024-01-15T09:01:02;97648.56;;;0.39;85.47
75747;BME280;70632;52.232;21.038;2024-01-15T09:03:27;97645.28;;;0.35;85.46
75747;BME280;70632;52.232;21.038;2024-01-15T09:05:53;97641.06;;;0.33;86.44
75747;BME280;70632;52.232;21.038;2024-01-15T09:08:20;97640.81;;;0.36;84.71
75747;BME280;70632;52.232;21.038;2024-01-15T09:10:45;97639.69;;;0.38;85.42
75747;BME280;70632;52.232;21.038;2024-01-15T09:13:11;97653.13;;;0.48;84.02
75747;BME280;70632;52.232;21.038;2024-01-15T09:15:38;97640.47;;;0.62;83.02
75747;BME280;70632;52.232;21.038;2024-01-15T09:18:04;97633.81;;;0.88;81.87
75747;BME280;70632;52.232;21.038;2024-01-15T09:20:30;97665.50;;;1.24;80.60
75747;BME280;70632;52.232;21.038;2024-01-15T09:22:56;97634.84;;;1.49;79.30
75747;BME280;70632;52.232;21.038;2024-01-15T09:25:22;97645.63;;;1.37;79.03
75747;BME280;70632;52.232;21.038;2024-01-15T09:27:48;97630.84;;;1.33;77.47
75747;BME280;70632;52.232;21.038;2024-01-15T09:30:14;97621.56;;;1.58;76.16
75747;BME280;70632;52.232;21.038;2024-01-15T09:32:40;97621.59;;;1.16;76.67
75747;BME280;70632;52.232;21.038;2024-01-15T09:35:06;97631.13;;;1.09;77.39
75747;BME280;70632;52.232;21.038;2024-01-15T09:37:31;97623.34;;;0.96;77.14
75747;BME280;70632;52.232;21.038;2024-01-15T09:39:57;97637.31;;;0.89;78.08
75747;BME280;70632;52.232;21.038;2024-01-15T09:42:27;97638.16;;;0.89;77.50
75747;BME280;70632;52.232;21.038;2024-01-15T09:44:54;97630.09;;;1.00;76.87
75747;BME280;70632;52.232;21.038;2024-01-15T09:47:20;97620.47;;;1.40;76.58
75747;BME280;70632;52.232;21.038;2024-01-15T09:49:47;97631.94;;;1.31;74.07
75747;BME280;70632;52.232;21.038;2024-01-15T09:52:14;97624.81;;;1.10;74.27
75747;BME280;70632;52.232;21.038;2024-01-15T09:54:43;97617.78;;;1.09;74.87
75747;BME280;70632;52.232;21.038;2024-01-15T09:57:09;97613.41;;;1.08;74.55
75747;BME280;70632;52.232;21.038;2024-01-15T09:59:36;97622.81;;;1.03;74.44
75747;BME280;70632;52.232;21.038;2024-01-15T10:02:02;97617.59;;;1.01;74.38
75747;BME280;70632;52.232;21.038;2024-01-15T10:04:29;97617.47;;;1.03;73.97
75747;BME280;70632;52.232;21.038;2024-01-15T10:06:55;97613.91;;;0.92;73.18
75747;BME280;70632;52.232;21.038;2024-01-15T10:09:21;97610.13;;;0.95;73.64
75747;BME280;70632;52.232;21.038;2024-01-15T10:11:47;97634.00;;;0.96;72.58
75747;BME280;70632;52.232;21.038;2024-01-15T10:14:14;97619.16;;;1.04;71.47
75747;BME280;70632;52.232;21.038;2024-01-15T10:16:40;97610.00;;;0.96;72.32
75747;BME280;70632;52.232;21.038;2024-01-15T10:19:06;97615.31;;;0.96;73.69
75747;BME280;70632;52.232;21.038;2024-01-15T10:21:32;97622.47;;;0.96;72.57
75747;BME280;70632;52.232;21.038;2024-01-15T10:24:01;97608.34;;;1.05;72.05
75747;BME280;70632;52.232;21.038;2024-01-15T10:26:31;97606.28;;;1.09;71.74
75747;BME280;70632;52.232;21.038;2024-01-15T10:28:58;97608.78;;;1.10;72.43
75747;BME280;70632;52.232;21.038;2024-01-15T10:31:26;97612.84;;;1.05;72.32
75747;BME280;70632;52.232;21.038;2024-01-15T10:33:53;97607.50;;;1.05;72.96
75747;BME280;70632;52.232;21.038;2024-01-15T10:36:19;97611.22;;;0.92;75.75
75747;BME280;70632;52.232;21.038;2024-01-15T10:38:45;97614.75;;;0.93;76.44
75747;BME280;70632;52.232;21.038;2024-01-15T10:41:11;97610.72;;;0.98;75.96
75747;BME280;70632;52.232;21.038;2024-01-15T10:43:37;97596.56;;;1.08;75.30
75747;BME280;70632;52.232;21.038;2024-01-15T10:46:03;97580.44;;;1.09;74.31
75747;BME280;70632;52.232;21.038;2024-01-15T10:48:30;97607.44;;;1.16;73.86
75747;BME280;70632;52.232;21.038;2024-01-15T10:50:59;97590.03;;;1.22;73.50
75747;BME280;70632;52.232;21.038;2024-01-15T10:53:26;97603.34;;;1.12;73.13
75747;BME280;70632;52.232;21.038;2024-01-15T10:55:53;97618.63;;;1.10;72.78
75747;BME280;70632;52.232;21.038;2024-01-15T10:58:20;97649.69;;;1.11;73.37
75747;BME280;70632;52.232;21.038;2024-01-15T11:00:46;97630.81;;;1.03;73.72
75747;BME280;70632;52.232;21.038;2024-01-15T11:03:12;97632.38;;;1.05;74.01
75747;BME280;70632;52.232;21.038;2024-01-15T11:05:43;97612.69;;;1.06;74.17
75747;BME280;70632;52.232;21.038;2024-01-15T11:08:09;97611.16;;;1.04;72.74
75747;BME280;70632;52.232;21.038;2024-01-15T11:10:43;97613.41;;;1.08;72.94
75747;BME280;70632;52.232;21.038;2024-01-15T11:13:15;97628.34;;;1.11;72.44
75747;BME280;70632;52.232;21.038;2024-01-15T11:15:56;97613.28;;;1.10;72.64
75747;BME280;70632;52.232;21.038;2024-01-15T11:18:22;97612.03;;;1.14;73.03
75747;BME280;70632;52.232;21.038;2024-01-15T11:23:50;97620.34;;;1.11;72.76
75747;BME280;70632;52.232;21.038;2024-01-15T11:29:29;97614.72;;;1.14;72.04
75747;BME280;70632;52.232;21.038;2024-01-15T11:34:21;97601.84;;;1.19;73.00
75747;BME280;70632;52.232;21.038;2024-01-15T11:37:07;97590.56;;;1.15;73.36
75747;BME280;70632;52.232;21.038;2024-01-15T11:42:03;97618.81;;;1.18;73.97
75747;BME280;70632;52.232;21.038;2024-01-15T11:44:30;97600.66;;;1.12;74.18
75747;BME280;70632;52.232;21.038;2024-01-15T11:47:06;97607.38;;;1.06;73.54
75747;BME280;70632;52.232;21.038;2024-01-15T11:52:02;97587.97;;;1.04;73.64
75747;BME280;70632;52.232;21.038;2024-01-15T11:54:31;97613.75;;;0.94;76.77
75747;BME280;70632;52.232;21.038;2024-01-15T11:56:59;97583.31;;;0.96;75.22
75747;BME280;70632;52.232;21.038;2024-01-15T11:59:26;97597.38;;;0.98;77.50
75747;BME280;70632;52.232;21.038;2024-01-15T12:01:52;97607.44;;;0.95;77.76
75747;BME280;70632;52.232;21.038;2024-01-15T12:04:20;97590.44;;;0.96;78.10
75747;BME280;70632;52.232;21.038;2024-01-15T12:06:46;97592.41;;;0.94;78.19
75747;BME280;70632;52.232;21.038;2024-01-15T12:09:12;97589.31;;;0.89;77.81
75747;BME280;70632;52.232;21.038;2024-01-15T12:11:39;97600.41;;;0.94;77.37
75747;BME280;70632;52.232;21.038;2024-01-15T12:14:08;97611.75;;;0.86;79.36
75747;BME280;70632;52.232;21.038;2024-01-15T12:16:33;97589.81;;;0.83;79.25
75747;BME280;70632;52.232;21.038;2024-01-15T12:18:59;97601.59;;;0.80;79.80
75747;BME280;70632;52.232;21.038;2024-01-15T12:21:26;97596.84;;;0.84;78.34
75747;BME280;70632;52.232;21.038;2024-01-15T12:23:52;97594.69;;;0.77;78.27
75747;BME280;70632;52.232;21.038;2024-01-15T12:26:19;97602.84;;;0.76;79.94
75747;BME280;70632;52.232;21.038;2024-01-15T12:28:46;97584.59;;;0.81;80.08
75747;BME280;70632;52.232;21.038;2024-01-15T12:31:11;97584.59;;;0.81;80.86
75747;BME280;70632;52.232;21.038;2024-01-15T12:33:38;97582.75;;;0.72;80.55
75747;BME280;70632;52.232;21.038;2024-01-15T12:36:04;97592.94;;;0.67;79.62
75747;BME280;70632;52.232;21.038;2024-01-15T12:38:30;97624.72;;;0.58;81.66
75747;BME280;70632;52.232;21.038;2024-01-15T12:40:56;97582.03;;;0.16;90.06
75747;BME280;70632;52.232;21.038;2024-01-15T12:43:21;97592.97;;;-0.09;90.09
75747;BME280;70632;52.232;21.038;2024-01-15T12:45:47;97585.00;;;-0.09;91.09
75747;BME280;70632;52.232;21.038;2024-01-15T12:48:14;97629.88;;;-0.05;91.31
75747;BME280;70632;52.232;21.038;2024-01-15T12:50:43;97613.56;;;0.00;91.04
75747;BME280;70632;52.232;21.038;2024-01-15T12:53:09;97612.56;;;0.01;89.86
75747;BME280;70632;52.232;21.038;2024-01-15T12:55:35;97592.91;;;0.13;90.43
75747;BME280;70632;52.232;21.038;2024-01-15T12:58:01;97565.66;;;0.21;88.10
75747;BME280;70632;52.232;21.038;2024-01-15T13:00:26;97579.56;;;0.25;89.08
75747;BME280;70632;52.232;21.038;2024-01-15T13:02:52;97595.06;;;0.31;86.55
75747;BME280;70632;52.232;21.038;2024-01-15T13:05:19;97584.13;;;0.34;84.91
75747;BME280;70632;52.232;21.038;2024-01-15T13:07:45;97597.22;;;0.37;84.37